sensor_id;sensor_type;location;lat;lon;timestamp;P1;durP1;ratioP1;P2;durP2;ratioP2
13834;SDS011;6988;52.614;13.500;2022-08-04T00:04:16;2.83;;;2.47;;
13834;SDS011;6988;52.614;13.500;2022-08-04T00:09:23;2.53;;;2.33;;
13834;SDS011;6988;52.614;13.500;2022-08-04T00:14:26;2.90;;;2.50;;
13834;SDS011;6988;52.614;13.500;2022-08-04T00:19:27;2.35;;;2.15;;
13834;SDS011;6988;52.614;13.500;2022-08-04T00:24:26;2.90;;;2.33;;
13834;SDS011;6988;52.614;13.500;2022-08-04T00:29:21;3.95;;;2.38;;
13834;SDS011;6988;52.614;13.500;2022-08-04T00:34:15;4.70;;;2.15;;
13834;SDS011;6988;52.614;13.500;2022-08-04T00:39:10;2.70;;;2.43;;
13834;SDS011;6988;52.614;13.500;2022-08-04T00:44:12;5.38;;;2.55;;
13834;SDS011;6988;52.614;13.500;2022-08-04T00:49:31;3.17;;;2.72;;
13834;SDS011;6988;52.614;13.500;2022-08-04T00:54:52;3.50;;;2.20;;
13834;SDS011;6988;52.614;13.500;2022-08-04T01:00:03;2.22;;;2.03;;
13834;SDS011;6988;52.614;13.500;2022-08-04T01:05:01;4.17;;;2.20;;
13834;SDS011;6988;52.614;13.500;2022-08-04T01:09:59;2.23;;;2.03;;
13834;SDS011;6988;52.614;13.500;2022-08-04T01:15:09;2.80;;;2.50;;
13834;SDS011;6988;52.614;13.500;2022-08-04T01:20:14;2.57;;;2.37;;
13834;SDS011;6988;52.614;13.500;2022-08-04T01:25:21;2.80;;;2.60;;
13834;SDS011;6988;52.614;13.500;2022-08-04T01:30:46;3.75;;;2.85;;
13834;SDS011;6988;52.614;13.500;2022-08-04T01:35:46;3.80;;;2.65;;
13834;SDS011;6988;52.614;13.500;2022-08-04T01:40:43;3.83;;;2.80;;
13834;SDS011;6988;52.614;13.500;2022-08-04T01:45:37;5.38;;;2.58;;
13834;SDS011;6988;52.614;13.500;2022-08-04T01:50:32;4.30;;;3.00;;
13834;SDS011;6988;52.614;13.500;2022-08-04T01:55:26;4.23;;;2.50;;
13834;SDS011;6988;52.614;13.500;2022-08-04T02:00:21;4.00;;;2.63;;
13834;SDS011;6988;52.614;13.500;2022-08-04T02:05:18;3.43;;;2.70;;
13834;SDS011;6988;52.614;13.500;2022-08-04T02:10:17;3.93;;;2.73;;
13834;SDS011;6988;52.614;13.500;2022-08-04T02:15:20;4.70;;;2.70;;
13834;SDS011;6988;52.614;13.500;2022-08-04T02:20:21;6.63;;;2.97;;
13834;SDS011;6988;52.614;13.500;2022-08-04T02:25:21;2.77;;;2.57;;
13834;SDS011;6988;52.614;13.500;2022-08-04T02:30:17;3.27;;;2.97;;
13834;SDS011;6988;52.614;13.500;2022-08-04T02:35:11;3.40;;;2.73;;
13834;SDS011;6988;52.614;13.500;2022-08-04T02:40:06;3.80;;;2.90;;
13834;SDS011;6988;52.614;13.500;2022-08-04T02:45:03;3.47;;;2.80;;
13834;SDS011;6988;52.614;13.500;2022-08-04T02:49:57;4.23;;;3.40;;
13834;SDS011;6988;52.614;13.500;2022-08-04T02:54:52;3.33;;;3.03;;
13834;SDS011;6988;52.614;13.500;2022-08-04T02:59:51;3.17;;;2.87;;
13834;SDS011;6988;52.614;13.500;2022-08-04T03:04:56;3.73;;;2.80;;
13834;SDS011;6988;52.614;13.500;2022-08-04T03:16:00;4.13;;;3.23;;
13834;SDS011;6988;52.614;13.500;2022-08-04T03:27:31;3.93;;;3.47;;
13834;SDS011;6988;52.614;13.500;2022-08-04T03:38:32;5.13;;;3.80;;
13834;SDS011;6988;52.614;13.500;2022-08-04T03:43:58;5.17;;;3.80;;
13834;SDS011;6988;52.614;13.500;2022-08-04T03:49:36;4.30;;;3.50;;
13834;SDS011;6988;52.614;13.500;2022-08-04T03:55:10;7.77;;;3.60;;
13834;SDS011;6988;52.614;13.500;2022-08-04T04:00:26;3.50;;;3.13;;
13834;SDS011;6988;52.614;13.500;2022-08-04T04:05:43;7.03;;;3.67;;
13834;SDS011;6988;52.614;13.500;2022-08-04T04:11:12;6.77;;;4.33;;
13834;SDS011;6988;52.614;13.500;2022-08-04T04:17:03;4.50;;;4.10;;
13834;SDS011;6988;52.614;13.500;2022-08-04T04:22:21;5.93;;;4.17;;
13834;SDS011;6988;52.614;13.500;2022-08-04T04:27:33;7.10;;;4.53;;
13834;SDS011;6988;52.614;13.500;2022-08-04T04:43:41;7.13;;;4.60;;
13834;SDS011;6988;52.614;13.500;2022-08-04T04:49:00;6.43;;;4.50;;
13834;SDS011;6988;52.614;13.500;2022-08-04T04:54:05;6.90;;;4.77;;
13834;SDS011;6988;52.614;13.500;2022-08-04T04:59:18;5.23;;;4.70;;
13834;SDS011;6988;52.614;13.500;2022-08-04T05:04:36;6.73;;;5.60;;
13834;SDS011;6988;52.614;13.500;2022-08-04T05:09:56;6.83;;;5.27;;
13834;SDS011;6988;52.614;13.500;2022-08-04T05:15:02;6.83;;;5.57;;
13834;SDS011;6988;52.614;13.500;2022-08-04T05:19:59;9.33;;;6.00;;
13834;SDS011;6988;52.614;13.500;2022-08-04T05:25:05;8.37;;;5.87;;
13834;SDS011;6988;52.614;13.500;2022-08-04T05:30:06;6.77;;;4.97;;
13834;SDS011;6988;52.614;13.500;2022-08-04T05:35:02;5.90;;;5.30;;
13834;SDS011;6988;52.614;13.500;2022-08-04T05:39:59;7.07;;;5.60;;
13834;SDS011;6988;52.614;13.500;2022-08-04T05:44:56;7.70;;;5.60;;
13834;SDS011;6988;52.614;13.500;2022-08-04T05:49:50;8.27;;;5.77;;
13834;SDS011;6988;52.614;13.500;2022-08-04T05:54:45;8.80;;;6.07;;
13834;SDS011;6988;52.614;13.500;2022-08-04T05:59:41;7.40;;;5.70;;
13834;SDS011;6988;52.614;13.500;2022-08-04T06:04:37;5.40;;;4.90;;
13834;SDS011;6988;52.614;13.500;2022-08-04T06:09:33;7.43;;;5.40;;
13834;SDS011;6988;52.614;13.500;2022-08-04T06:14:25;10.50;;;5.90;;
13834;SDS011;6988;52.614;13.500;2022-08-04T06:19:20;6.38;;;5.63;;
13834;SDS011;6988;52.614;13.500;2022-08-04T06:24:17;6.53;;;5.05;;
13834;SDS011;6988;52.614;13.500;2022-08-04T06:29:15;8.18;;;5.20;;
13834;SDS011;6988;52.614;13.500;2022-08-04T06:34:13;5.47;;;4.78;;
13834;SDS011;6988;52.614;13.500;2022-08-04T06:39:07;6.68;;;5.40;;
13834;SDS011;6988;52.614;13.500;2022-08-04T06:44:02;7.80;;;5.43;;
13834;SDS011;6988;52.614;13.500;2022-08-04T06:48:59;7.15;;;5.15;;
13834;SDS011;6988;52.614;13.500;2022-08-04T06:53:52;7.70;;;4.75;;
13834;SDS011;6988;52.614;13.500;2022-08-04T06:58:44;5.07;;;4.45;;
13834;SDS011;6988;52.614;13.500;2022-08-04T07:03:38;7.85;;;4.70;;
13834;SDS011;6988;52.614;13.500;2022-08-04T07:08:32;8.57;;;4.70;;
13834;SDS011;6988;52.614;13.500;2022-08-04T07:13:26;9.60;;;4.85;;
13834;SDS011;6988;52.614;13.500;2022-08-04T07:18:20;6.15;;;4.32;;
13834;SDS011;6988;52.614;13.500;2022-08-04T07:23:12;7.03;;;4.57;;
13834;SDS011;6988;52.614;13.500;2022-08-04T07:28:13;7.60;;;4.35;;
13834;SDS011;6988;52.614;13.500;2022-08-04T07:33:05;4.68;;;3.90;;
13834;SDS011;6988;52.614;13.500;2022-08-04T07:37:58;4.78;;;3.33;;
13834;SDS011;6988;52.614;13.500;2022-08-04T07:42:50;4.25;;;3.75;;
13834;SDS011;6988;52.614;13.500;2022-08-04T07:47:43;5.18;;;3.47;;
13834;SDS011;6988;52.614;13.500;2022-08-04T07:52:35;8.20;;;3.70;;
13834;SDS011;6988;52.614;13.500;2022-08-04T07:57:28;7.97;;;3.83;;
13834;SDS011;6988;52.614;13.500;2022-08-04T08:02:19;8.82;;;4.22;;
13834;SDS011;6988;52.614;13.500;2022-08-04T08:07:14;6.68;;;4.47;;
13834;SDS011;6988;52.614;13.500;2022-08-04T08:12:09;4.63;;;4.20;;
13834;SDS011;6988;52.614;13.500;2022-08-04T08:17:03;6.90;;;3.80;;
13834;SDS011;6988;52.614;13.500;2022-08-04T08:21:55;5.03;;;4.63;;
13834;SDS011;6988;52.614;13.500;2022-08-04T08:26:49;6.15;;;3.92;;
13834;SDS011;6988;52.614;13.500;2022-08-04T08:31:41;6.60;;;4.45;;
13834;SDS011;6988;52.614;13.500;2022-08-04T08:36:34;8.27;;;5.18;;
13834;SDS011;6988;52.614;13.500;2022-08-04T08:41:45;7.03;;;5.03;;
13834;SDS011;6988;52.614;13.500;2022-08-04T08:47:19;6.65;;;4.88;;
13834;SDS011;6988;52.614;13.500;2022-08-04T08:52:32;4.95;;;4.38;;
13834;SDS011;6988;52.614;13.500;2022-08-04T08:58:09;4.60;;;4.20;;
13834;SDS011;6988;52.614;13.500;2022-08-04T09:03:30;4.43;;;4.13;;
13834;SDS011;6988;52.614;13.500;2022-08-04T09:08:59;5.10;;;4.15;;
13834;SDS011;6988;52.614;13.500;2022-08-04T09:14:16;6.15;;;4.15;;
13834;SDS011;6988;52.614;13.500;2022-08-04T09:19:16;6.65;;;3.92;;
13834;SDS011;6988;52.614;13.500;2022-08-04T09:24:17;4.57;;;4.18;;
13834;SDS011;6988;52.614;13.500;2022-08-04T09:29:18;3.63;;;3.33;;
13834;SDS011;6988;52.614;13.500;2022-08-04T09:34:23;3.40;;;3.10;;
13834;SDS011;6988;52.614;13.500;2022-08-04T09:39:30;4.68;;;3.28;;
13834;SDS011;6988;52.614;13.500;2022-08-04T09:44:38;4.32;;;3.60;;
13834;SDS011;6988;52.614;13.500;2022-08-04T09:49:45;4.20;;;3.80;;
13834;SDS011;6988;52.614;13.500;2022-08-04T09:54:47;3.45;;;3.15;;
13834;SDS011;6988;52.614;13.500;2022-08-04T09:59:52;7.05;;;3.15;;
13834;SDS011;6988;52.614;13.500;2022-08-04T10:04:52;3.63;;;3.00;;
13834;SDS011;6988;52.614;13.500;2022-08-04T10:09:50;6.15;;;3.30;;
13834;SDS011;6988;52.614;13.500;2022-08-04T10:15:05;6.80;;;2.65;;
13834;SDS011;6988;52.614;13.500;2022-08-04T10:20:06;3.35;;;2.67;;
13834;SDS011;6988;52.614;13.500;2022-08-04T10:25:14;4.28;;;3.30;;
13834;SDS011;6988;52.614;13.500;2022-08-04T10:30:21;4.57;;;3.28;;
13834;SDS011;6988;52.614;13.500;2022-08-04T10:35:18;3.20;;;3.00;;
13834;SDS011;6988;52.614;13.500;2022-08-04T10:40:16;5.40;;;3.47;;
13834;SDS011;6988;52.614;13.500;2022-08-04T10:45:35;5.18;;;2.88;;
13834;SDS011;6988;52.614;13.500;2022-08-04T10:50:35;3.40;;;2.90;;
13834;SDS011;6988;52.614;13.500;2022-08-04T10:55:34;3.03;;;2.75;;
13834;SDS011;6988;52.614;13.500;2022-08-04T11:00:34;3.88;;;2.97;;
13834;SDS011;6988;52.614;13.500;2022-08-04T11:05:33;4.47;;;3.30;;
13834;SDS011;6988;52.614;13.500;2022-08-04T11:10:32;2.85;;;2.65;;
13834;SDS011;6988;52.614;13.500;2022-08-04T11:15:35;4.20;;;3.30;;
13834;SDS011;6988;52.614;13.500;2022-08-04T11:20:35;3.03;;;2.83;;
13834;SDS011;6988;52.614;13.500;2022-08-04T11:25:39;3.65;;;3.13;;
13834;SDS011;6988;52.614;13.500;2022-08-04T11:30:46;3.60;;;3.10;;
13834;SDS011;6988;52.614;13.500;2022-08-04T11:35:49;4.97;;;2.90;;
13834;SDS011;6988;52.614;13.500;2022-08-04T11:40:53;3.97;;;2.85;;
13834;SDS011;6988;52.614;13.500;2022-08-04T11:45:52;4.22;;;3.13;;
13834;SDS011;6988;52.614;13.500;2022-08-04T11:50:52;3.30;;;2.67;;
13834;SDS011;6988;52.614;13.500;2022-08-04T11:55:44;3.35;;;3.00;;
13834;SDS011;6988;52.614;13.500;2022-08-04T12:00:50;5.20;;;3.10;;
13834;SDS011;6988;52.614;13.500;2022-08-04T12:05:57;3.28;;;3.00;;
13834;SDS011;6988;52.614;13.500;2022-08-04T12:11:06;3.22;;;2.67;;
13834;SDS011;6988;52.614;13.500;2022-08-04T12:16:15;3.17;;;2.97;;
13834;SDS011;6988;52.614;13.500;2022-08-04T12:21:24;3.75;;;3.20;;
13834;SDS011;6988;52.614;13.500;2022-08-04T12:26:26;3.20;;;2.90;;
13834;SDS011;6988;52.614;13.500;2022-08-04T12:31:27;4.00;;;2.78;;
13834;SDS011;6988;52.614;13.500;2022-08-04T12:36:32;3.35;;;3.00;;
13834;SDS011;6988;52.614;13.500;2022-08-04T12:41:31;4.07;;;3.17;;
13834;SDS011;6988;52.614;13.500;2022-08-04T12:46:32;3.92;;;2.63;;
13834;SDS011;6988;52.614;13.500;2022-08-04T12:51:26;3.33;;;3.00;;
13834;SDS011;6988;52.614;13.500;2022-08-04T12:56:22;3.17;;;2.88;;
13834;SDS011;6988;52.614;13.500;2022-08-04T13:01:19;5.30;;;2.95;;
13834;SDS011;6988;52.614;13.500;2022-08-04T13:06:15;2.88;;;2.67;;
13834;SDS011;6988;52.614;13.500;2022-08-04T13:11:13;5.22;;;2.83;;
13834;SDS011;6988;52.614;13.500;2022-08-04T13:16:07;2.72;;;2.53;;
13834;SDS011;6988;52.614;13.500;2022-08-04T13:21:12;4.93;;;3.10;;
13834;SDS011;6988;52.614;13.500;2022-08-04T13:26:07;4.05;;;2.83;;
13834;SDS011;6988;52.614;13.500;2022-08-04T13:31:01;2.60;;;2.40;;
13834;SDS011;6988;52.614;13.500;2022-08-04T13:35:57;3.55;;;2.47;;
13834;SDS011;6988;52.614;13.500;2022-08-04T13:40:52;2.95;;;2.75;;
13834;SDS011;6988;52.614;13.500;2022-08-04T13:45:49;3.10;;;2.80;;
13834;SDS011;6988;52.614;13.500;2022-08-04T13:50:49;2.90;;;2.70;;
13834;SDS011;6988;52.614;13.500;2022-08-04T13:55:43;3.08;;;2.78;;
13834;SDS011;6988;52.614;13.500;2022-08-04T14:00:39;3.05;;;2.70;;
13834;SDS011;6988;52.614;13.500;2022-08-04T14:05:37;2.63;;;2.42;;
13834;SDS011;6988;52.614;13.500;2022-08-04T14:10:29;3.35;;;2.30;;
13834;SDS011;6988;52.614;13.500;2022-08-04T14:15:29;3.83;;;2.33;;
13834;SDS011;6988;52.614;13.500;2022-08-04T14:20:26;4.75;;;2.40;;
13834;SDS011;6988;52.614;13.500;2022-08-04T14:25:18;4.45;;;2.20;;
13834;SDS011;6988;52.614;13.500;2022-08-04T14:30:19;2.60;;;2.38;;
13834;SDS011;6988;52.614;13.500;2022-08-04T14:35:14;2.40;;;2.20;;
13834;SDS011;6988;52.614;13.500;2022-08-04T14:40:07;3.40;;;1.95;;
13834;SDS011;6988;52.614;13.500;2022-08-04T14:45:15;1.95;;;1.80;;
13834;SDS011;6988;52.614;13.500;2022-08-04T14:50:07;2.05;;;1.85;;
13834;SDS011;6988;52.614;13.500;2022-08-04T14:55:15;2.17;;;1.98;;
13834;SDS011;6988;52.614;13.500;2022-08-04T15:00:09;2.00;;;1.90;;
13834;SDS011;6988;52.614;13.500;2022-08-04T15:05:03;2.35;;;1.92;;
13834;SDS011;6988;52.614;13.500;2022-08-04T15:09:55;2.75;;;2.20;;
13834;SDS011;6988;52.614;13.500;2022-08-04T15:14:49;2.70;;;2.30;;
13834;SDS011;6988;52.614;13.500;2022-08-04T15:19:41;2.70;;;1.95;;
13834;SDS011;6988;52.614;13.500;2022-08-04T15:24:33;2.20;;;2.00;;
13834;SDS011;6988;52.614;13.500;2022-08-04T15:29:26;2.45;;;2.10;;
13834;SDS011;6988;52.614;13.500;2022-08-04T15:34:27;3.70;;;2.20;;
13834;SDS011;6988;52.614;13.500;2022-08-04T15:39:36;2.40;;;2.20;;
13834;SDS011;6988;52.614;13.500;2022-08-04T15:44:51;2.53;;;2.33;;
13834;SDS011;6988;52.614;13.500;2022-08-04T15:50:12;5.03;;;2.28;;
13834;SDS011;6988;52.614;13.500;2022-08-04T16:00:27;2.40;;;2.20;;
13834;SDS011;6988;52.614;13.500;2022-08-04T16:10:34;2.47;;;2.20;;
13834;SDS011;6988;52.614;13.500;2022-08-04T16:15:35;2.67;;;2.47;;
13834;SDS011;6988;52.614;13.500;2022-08-04T16:20:28;2.40;;;2.20;;
13834;SDS011;6988;52.614;13.500;2022-08-04T16:25:30;2.60;;;2.40;;
13834;SDS011;6988;52.614;13.500;2022-08-04T16:30:38;2.55;;;2.35;;
13834;SDS011;6988;52.614;13.500;2022-08-04T16:35:30;2.60;;;2.40;;
13834;SDS011;6988;52.614;13.500;2022-08-04T16:40:23;2.60;;;2.10;;
13834;SDS011;6988;52.614;13.500;2022-08-04T16:45:20;3.25;;;2.42;;
13834;SDS011;6988;52.614;13.500;2022-08-04T16:50:12;3.95;;;2.30;;
13834;SDS011;6988;52.614;13.500;2022-08-04T16:55:05;3.38;;;2.10;;
13834;SDS011;6988;52.614;13.500;2022-08-04T16:59:58;2.67;;;2.15;;
13834;SDS011;6988;52.614;13.500;2022-08-04T17:04:50;3.58;;;2.30;;
13834;SDS011;6988;52.614;13.500;2022-08-04T17:09:47;2.95;;;2.20;;
13834;SDS011;6988;52.614;13.500;2022-08-04T17:14:40;2.60;;;2.40;;
13834;SDS011;6988;52.614;13.500;2022-08-04T17:19:33;2.38;;;2.00;;
13834;SDS011;6988;52.614;13.500;2022-08-04T17:24:25;2.65;;;2.40;;
13834;SDS011;6988;52.614;13.500;2022-08-04T17:29:17;2.33;;;2.13;;
13834;SDS011;6988;52.614;13.500;2022-08-04T17:34:10;2.47;;;2.17;;
13834;SDS011;6988;52.614;13.500;2022-08-04T17:39:11;2.63;;;2.13;;
13834;SDS011;6988;52.614;13.500;2022-08-04T17:44:04;3.15;;;2.17;;
13834;SDS011;6988;52.614;13.500;2022-08-04T17:48:57;2.85;;;1.92;;
13834;SDS011;6988;52.614;13.500;2022-08-04T17:53:54;3.45;;;2.35;;
13834;SDS011;6988;52.614;13.500;2022-08-04T18:04:29;3.33;;;1.98;;
13834;SDS011;6988;52.614;13.500;2022-08-04T18:09:27;3.03;;;2.20;;
13834;SDS011;6988;52.614;13.500;2022-08-04T18:14:23;2.78;;;1.95;;
13834;SDS011;6988;52.614;13.500;2022-08-04T18:19:16;3.10;;;2.00;;
13834;SDS011;6988;52.614;13.500;2022-08-04T18:24:08;4.10;;;1.90;;
13834;SDS011;6988;52.614;13.500;2022-08-04T18:28:59;2.88;;;2.10;;
13834;SDS011;6988;52.614;13.500;2022-08-04T18:33:52;3.17;;;2.15;;
13834;SDS011;6988;52.614;13.500;2022-08-04T18:38:44;2.47;;;2.10;;
13834;SDS011;6988;52.614;13.500;2022-08-04T18:43:36;2.53;;;2.13;;
13834;SDS011;6988;52.614;13.500;2022-08-04T18:48:28;2.20;;;2.00;;
13834;SDS011;6988;52.614;13.500;2022-08-04T18:53:21;2.85;;;2.20;;
13834;SDS011;6988;52.614;13.500;2022-08-04T18:58:12;2.13;;;1.92;;
13834;SDS011;6988;52.614;13.500;2022-08-04T19:03:04;3.10;;;1.95;;
13834;SDS011;6988;52.614;13.500;2022-08-04T19:07:56;5.63;;;2.40;;
13834;SDS011;6988;52.614;13.500;2022-08-04T19:12:49;2.75;;;1.88;;
13834;SDS011;6988;52.614;13.500;2022-08-04T19:17:41;5.25;;;2.50;;
13834;SDS011;6988;52.614;13.500;2022-08-04T19:22:33;5.93;;;2.70;;
13834;SDS011;6988;52.614;13.500;2022-08-04T19:27:24;3.05;;;2.17;;
13834;SDS011;6988;52.614;13.500;2022-08-04T19:32:17;7.53;;;2.28;;
13834;SDS011;6988;52.614;13.500;2022-08-04T19:37:09;4.22;;;1.83;;
13834;SDS011;6988;52.614;13.500;2022-08-04T19:42:01;2.47;;;2.08;;
13834;SDS011;6988;52.614;13.500;2022-08-04T19:46:53;4.32;;;2.20;;
13834;SDS011;6988;52.614;13.500;2022-08-04T19:51:46;10.77;;;2.10;;
13834;SDS011;6988;52.614;13.500;2022-08-04T19:56:37;13.60;;;2.95;;
13834;SDS011;6988;52.614;13.500;2022-08-04T20:01:29;7.70;;;2.63;;
13834;SDS011;6988;52.614;13.500;2022-08-04T20:06:21;6.80;;;2.50;;
13834;SDS011;6988;52.614;13.500;2022-08-04T20:11:14;6.35;;;2.55;;
13834;SDS011;6988;52.614;13.500;2022-08-04T20:16:06;7.65;;;2.60;;
13834;SDS011;6988;52.614;13.500;2022-08-04T20:20:58;7.80;;;2.38;;
13834;SDS011;6988;52.614;13.500;2022-08-04T20:25:50;6.55;;;2.53;;
13834;SDS011;6988;52.614;13.500;2022-08-04T20:30:43;4.78;;;2.45;;
13834;SDS011;6988;52.614;13.500;2022-08-04T20:35:36;4.25;;;2.33;;
13834;SDS011;6988;52.614;13.500;2022-08-04T20:40:28;5.15;;;2.80;;
13834;SDS011;6988;52.614;13.500;2022-08-04T20:45:20;3.15;;;2.28;;
13834;SDS011;6988;52.614;13.500;2022-08-04T20:50:13;3.67;;;2.60;;
13834;SDS011;6988;52.614;13.500;2022-08-04T20:55:06;7.05;;;2.70;;
13834;SDS011;6988;52.614;13.500;2022-08-04T20:59:59;3.70;;;2.53;;
13834;SDS011;6988;52.614;13.500;2022-08-04T21:04:51;3.97;;;2.40;;
13834;SDS011;6988;52.614;13.500;2022-08-04T21:09:44;5.47;;;2.42;;
13834;SDS011;6988;52.614;13.500;2022-08-04T21:14:37;3.42;;;2.20;;
13834;SDS011;6988;52.614;13.500;2022-08-04T21:19:28;4.40;;;2.83;;
13834;SDS011;6988;52.614;13.500;2022-08-04T21:24:20;3.80;;;2.80;;
13834;SDS011;6988;52.614;13.500;2022-08-04T21:29:14;3.63;;;2.70;;
13834;SDS011;6988;52.614;13.500;2022-08-04T21:34:06;3.80;;;2.83;;
13834;SDS011;6988;52.614;13.500;2022-08-04T21:38:58;3.00;;;2.70;;
13834;SDS011;6988;52.614;13.500;2022-08-04T21:43:50;3.70;;;3.00;;
13834;SDS011;6988;52.614;13.500;2022-08-04T21:48:43;4.40;;;3.30;;
13834;SDS011;6988;52.614;13.500;2022-08-04T21:53:35;6.10;;;3.35;;
13834;SDS011;6988;52.614;13.500;2022-08-04T21:58:26;4.65;;;3.17;;
13834;SDS011;6988;52.614;13.500;2022-08-04T22:03:18;3.80;;;2.90;;
13834;SDS011;6988;52.614;13.500;2022-08-04T22:08:11;3.38;;;2.80;;
13834;SDS011;6988;52.614;13.500;2022-08-04T22:13:03;3.17;;;2.80;;
13834;SDS011;6988;52.614;13.500;2022-08-04T22:17:55;3.95;;;3.00;;
13834;SDS011;6988;52.614;13.500;2022-08-04T22:22:47;4.40;;;2.92;;
13834;SDS011;6988;52.614;13.500;2022-08-04T22:27:44;5.18;;;3.33;;
13834;SDS011;6988;52.614;13.500;2022-08-04T22:32:52;3.92;;;3.35;;
13834;SDS011;6988;52.614;13.500;2022-08-04T22:37:44;5.10;;;3.15;;
13834;SDS011;6988;52.614;13.500;2022-08-04T22:42:36;3.30;;;3.00;;
13834;SDS011;6988;52.614;13.500;2022-08-04T22:47:30;4.70;;;3.47;;
13834;SDS011;6988;52.614;13.500;2022-08-04T22:52:22;4.82;;;3.25;;
13834;SDS011;6988;52.614;13.500;2022-08-04T22:57:13;3.92;;;3.00;;
13834;SDS011;6988;52.614;13.500;2022-08-04T23:02:05;3.33;;;3.03;;
13834;SDS011;6988;52.614;13.500;2022-08-04T23:06:58;4.35;;;3.20;;
13834;SDS011;6988;52.614;13.500;2022-08-04T23:11:51;3.67;;;3.38;;
13834;SDS011;6988;52.614;13.500;2022-08-04T23:16:44;4.43;;;3.20;;
13834;SDS011;6988;52.614;13.500;2022-08-04T23:21:36;5.15;;;3.30;;
13834;SDS011;6988;52.614;13.500;2022-08-04T23:26:30;3.47;;;3.17;;
13834;SDS011;6988;52.614;13.500;2022-08-04T23:31:21;4.72;;;3.13;;
13834;SDS011;6988;52.614;13.500;2022-08-04T23:36:13;4.43;;;3.50;;
13834;SDS011;6988;52.614;13.500;2022-08-04T23:41:05;5.20;;;3.33;;
13834;SDS011;6988;52.614;13.500;2022-08-04T23:46:00;3.92;;;3.60;;
13834;SDS011;6988;52.614;13.500;2022-08-04T23:50:52;3.60;;;3.30;;
13834;SDS011;6988;52.614;13.500;2022-08-04T23:55:44;4.20;;;3.80;;
